createdAt,value
2019-03-18T00:01:08.113Z,23.80
2019-03-18T00:03:37.144Z,23.80
2019-03-18T00:06:06.174Z,23.80
2019-03-18T00:08:35.136Z,23.80
2019-03-18T00:11:04.159Z,23.80
2019-03-18T00:13:33.120Z,23.90
2019-03-18T00:16:02.085Z,23.90
2019-03-18T00:18:31.049Z,23.90
2019-03-18T00:21:00.073Z,23.90
2019-03-18T00:23:29.114Z,23.90
2019-03-18T00:25:58.171Z,23.90
2019-03-18T00:28:27.218Z,23.90
2019-03-18T00:30:56.237Z,23.90
2019-03-18T00:33:25.205Z,23.90
2019-03-18T00:35:54.233Z,23.90
2019-03-18T00:38:23.183Z,24.00
2019-03-18T00:40:52.077Z,24.00
2019-03-18T00:43:21.033Z,24.00
2019-03-18T00:45:50.077Z,24.00
2019-03-18T00:48:19.028Z,24.00
2019-03-18T00:50:47.998Z,24.00
2019-03-18T00:53:16.945Z,24.00
2019-03-18T00:55:45.921Z,24.00
2019-03-18T00:58:14.864Z,24.00
2019-03-18T01:00:43.916Z,24.00
2019-03-18T01:03:12.856Z,24.00
2019-03-18T01:05:41.889Z,24.00
2019-03-18T01:08:10.920Z,24.00
2019-03-18T01:10:39.951Z,24.10
2019-03-18T01:13:08.989Z,24.00
2019-03-18T01:15:38.013Z,24.10
2019-03-18T01:18:06.973Z,24.10
2019-03-18T01:20:35.925Z,24.10
2019-03-18T01:23:04.899Z,24.10
2019-03-18T01:25:33.785Z,24.10
2019-03-18T01:28:02.762Z,24.10
2019-03-18T01:30:31.693Z,24.10
2019-03-18T01:33:00.657Z,24.10
2019-03-18T01:35:29.529Z,24.10
2019-03-18T01:37:58.584Z,24.10
2019-03-18T01:40:27.601Z,24.10
2019-03-18T01:42:56.570Z,24.10
2019-03-18T01:45:25.611Z,24.10
2019-03-18T01:47:54.476Z,24.10
2019-03-18T01:50:23.416Z,24.10
2019-03-18T01:52:52.287Z,24.10
2019-03-18T01:55:21.235Z,24.10
2019-03-18T01:57:50.160Z,24.10
2019-03-18T02:00:19.163Z,24.10
2019-03-18T02:02:48.057Z,24.10
2019-03-18T02:05:17.066Z,24.10
2019-03-18T02:07:46.025Z,24.10
2019-03-18T02:10:15.068Z,24.10
2019-03-18T02:12:44.093Z,24.10
2019-03-18T02:15:13.257Z,24.10
2019-03-18T02:17:42.285Z,24.10
2019-03-18T02:20:11.457Z,24.10
2019-03-18T02:22:40.448Z,24.10
2019-03-18T02:25:09.717Z,24.10
2019-03-18T02:27:39.154Z,24.10
2019-03-18T02:30:08.736Z,24.10
2019-03-18T02:32:37.598Z,24.10
2019-03-18T02:35:06.841Z,24.10
2019-03-18T02:37:35.805Z,24.10
2019-03-18T02:40:04.986Z,24.10
2019-03-18T02:42:34.018Z,24.10
2019-03-18T02:45:02.993Z,24.10
2019-03-18T02:47:31.949Z,24.10
2019-03-18T02:50:00.900Z,24.10
2019-03-18T02:52:30.009Z,24.10
2019-03-18T02:54:58.878Z,24.10
2019-03-18T02:57:27.850Z,24.10
2019-03-18T02:59:56.805Z,24.10
2019-03-18T03:02:25.769Z,24.10
2019-03-18T03:04:54.729Z,24.10
2019-03-18T03:07:23.776Z,24.10
2019-03-18T03:09:52.833Z,24.10
2019-03-18T03:12:21.861Z,24.10
2019-03-18T03:14:50.774Z,24.10
2019-03-18T03:17:21.647Z,24.10
2019-03-18T03:19:50.537Z,24.10
2019-03-18T03:22:19.525Z,24.10
2019-03-18T03:24:48.681Z,24.10
2019-03-18T03:27:17.696Z,24.10
2019-03-18T03:29:46.709Z,24.10
2019-03-18T03:32:15.611Z,24.10
2019-03-18T03:34:44.547Z,24.10
2019-03-18T03:37:13.656Z,24.10
2019-03-18T03:39:42.685Z,24.10
2019-03-18T03:42:11.633Z,24.10
2019-03-18T03:44:40.602Z,24.10
2019-03-18T03:47:09.556Z,24.10
2019-03-18T03:49:38.542Z,24.10
2019-03-18T03:52:07.593Z,24.10
2019-03-18T03:54:36.674Z,24.10
2019-03-18T03:57:05.874Z,24.10
2019-03-18T03:59:34.912Z,24.10
2019-03-18T04:02:03.923Z,24.00
2019-03-18T04:04:32.981Z,24.00
2019-03-18T04:07:01.983Z,24.10
2019-03-18T04:09:31.021Z,24.00
2019-03-18T04:11:59.955Z,24.10
2019-03-18T04:14:28.993Z,24.10
2019-03-18T04:17:02.485Z,24.00
2019-03-18T04:19:28.759Z,24.00
2019-03-18T04:21:57.789Z,24.00
2019-03-18T04:24:26.818Z,24.00
2019-03-18T04:26:55.800Z,24.00
2019-03-18T04:29:24.824Z,24.00
2019-03-18T04:31:53.713Z,24.00
2019-03-18T04:34:22.662Z,24.00
2019-03-18T04:36:51.694Z,24.00
2019-03-18T04:39:20.634Z,24.00
2019-03-18T04:41:49.529Z,24.00
2019-03-18T04:44:18.481Z,24.00
2019-03-18T04:46:47.441Z,24.00
2019-03-18T04:49:22.593Z,24.00
2019-03-18T04:51:51.631Z,24.00
2019-03-18T04:54:20.640Z,24.00
2019-03-18T04:56:49.721Z,24.00
2019-03-18T04:59:18.752Z,24.00
2019-03-18T05:01:47.817Z,24.00
2019-03-18T05:04:16.868Z,24.00
2019-03-18T05:06:45.938Z,24.00
2019-03-18T05:09:14.907Z,23.90
2019-03-18T05:11:43.973Z,23.90
2019-03-18T05:14:13.013Z,23.90
2019-03-18T05:16:42.073Z,23.90
2019-03-18T05:19:11.146Z,23.90
2019-03-18T05:21:40.187Z,23.90
2019-03-18T05:24:09.275Z,23.90
2019-03-18T05:26:38.332Z,23.90
2019-03-18T05:29:07.388Z,23.90
2019-03-18T05:31:36.432Z,23.90
2019-03-18T05:34:05.491Z,23.90
2019-03-18T05:36:34.516Z,23.90
2019-03-18T05:39:04.264Z,23.90
2019-03-18T05:41:33.208Z,23.90
2019-03-18T05:44:02.300Z,23.90
2019-03-18T05:46:31.348Z,23.90
2019-03-18T05:49:00.412Z,23.90
2019-03-18T05:51:29.372Z,23.90
2019-03-18T05:53:58.433Z,23.90
2019-03-18T05:56:27.472Z,23.90
2019-03-18T05:58:56.560Z,23.90
2019-03-18T06:01:25.651Z,23.90
2019-03-18T06:03:54.701Z,23.90
2019-03-18T06:06:23.779Z,23.90
2019-03-18T06:08:52.829Z,23.90
2019-03-18T06:11:21.813Z,23.80
2019-03-18T06:13:50.778Z,23.90
2019-03-18T06:16:19.817Z,23.80
2019-03-18T06:18:48.869Z,23.80
2019-03-18T06:21:17.943Z,23.80
2019-03-18T06:23:47.009Z,23.80
2019-03-18T06:26:16.073Z,23.80
2019-03-18T06:28:46.929Z,23.80
2019-03-18T06:31:15.997Z,23.80
2019-03-18T06:33:45.130Z,23.80
2019-03-18T06:36:14.196Z,23.80
2019-03-18T06:38:43.134Z,23.80
2019-03-18T06:41:12.183Z,23.80
2019-03-18T06:43:41.308Z,23.80
2019-03-18T06:46:10.269Z,23.80
2019-03-18T06:48:39.320Z,23.80
2019-03-18T06:51:08.351Z,23.80
2019-03-18T06:53:40.064Z,23.80
2019-03-18T06:56:08.009Z,23.80
2019-03-18T06:58:37.064Z,23.80
2019-03-18T07:01:06.120Z,23.80
2019-03-18T07:03:35.177Z,23.80
2019-03-18T07:06:04.258Z,23.80
2019-03-18T07:08:33.216Z,23.80
2019-03-18T07:11:02.189Z,23.80
2019-03-18T07:13:31.250Z,23.80
2019-03-18T07:16:00.309Z,23.80
2019-03-18T07:18:29.375Z,23.80
2019-03-18T07:20:58.429Z,23.80
2019-03-18T07:23:27.561Z,23.80
2019-03-18T07:25:56.649Z,23.80
2019-03-18T07:28:25.742Z,23.80
2019-03-18T07:30:54.784Z,23.70
2019-03-18T07:33:23.865Z,23.70
2019-03-18T07:35:52.949Z,23.70
2019-03-18T07:38:22.017Z,23.70
2019-03-18T07:40:51.090Z,23.70
2019-03-18T07:43:20.154Z,23.70
2019-03-18T07:45:49.233Z,23.70
2019-03-18T07:48:29.981Z,23.70
2019-03-18T07:50:49.099Z,23.70
2019-03-18T07:53:18.397Z,23.70
2019-03-18T07:55:47.601Z,23.60
2019-03-18T07:58:16.678Z,23.70
2019-03-18T08:00:45.815Z,23.70
2019-03-18T08:03:15.018Z,23.70
2019-03-18T08:05:44.082Z,23.60
2019-03-18T08:08:13.128Z,23.60
2019-03-18T08:10:42.194Z,23.60
2019-03-18T08:13:11.289Z,23.60
2019-03-18T08:15:40.335Z,23.60
2019-03-18T08:18:09.395Z,23.60
2019-03-18T08:20:38.471Z,23.60
2019-03-18T08:23:07.517Z,23.60
2019-03-18T08:25:36.588Z,23.60
2019-03-18T08:28:05.638Z,23.60
2019-03-18T08:30:34.715Z,23.60
2019-03-18T08:33:03.836Z,23.60
2019-03-18T08:35:32.905Z,23.60
2019-03-18T08:38:01.957Z,23.60
2019-03-18T08:40:31.025Z,23.60
2019-03-18T08:43:00.222Z,23.60
2019-03-18T08:45:29.290Z,23.60
2019-03-18T08:47:58.358Z,23.50
2019-03-18T08:50:27.424Z,23.50
2019-03-18T08:52:56.492Z,23.50
2019-03-18T08:55:25.545Z,23.50
2019-03-18T08:57:54.608Z,23.50
2019-03-18T09:00:23.765Z,23.50
2019-03-18T09:02:52.815Z,23.50
2019-03-18T09:05:21.869Z,23.50
2019-03-18T09:07:50.949Z,23.50
2019-03-18T09:10:20.010Z,23.50
2019-03-18T09:12:49.082Z,23.50
2019-03-18T09:15:18.140Z,23.50
2019-03-18T09:17:47.202Z,23.50
2019-03-18T09:20:16.272Z,23.50
2019-03-18T09:22:45.334Z,23.50
2019-03-18T09:25:14.521Z,23.50
2019-03-18T09:27:43.561Z,23.50
2019-03-18T09:30:13.238Z,23.50
2019-03-18T09:32:42.295Z,23.50
2019-03-18T09:35:11.481Z,23.50
2019-03-18T09:37:40.538Z,23.50
2019-03-18T09:40:09.843Z,23.50
2019-03-18T09:42:38.949Z,23.50
2019-03-18T09:45:08.431Z,23.50
2019-03-18T09:47:37.482Z,23.50
2019-03-18T09:50:07.013Z,23.50
2019-03-18T09:52:36.087Z,23.50
2019-03-18T09:55:05.185Z,23.50
2019-03-18T09:57:34.278Z,23.50
2019-03-18T10:00:03.338Z,23.50
2019-03-18T10:02:32.321Z,23.50
2019-03-18T10:05:01.365Z,23.50
2019-03-18T10:07:30.421Z,23.50
2019-03-18T10:09:59.469Z,23.50
2019-03-18T10:12:28.545Z,23.50
2019-03-18T10:14:57.605Z,23.50
2019-03-18T10:17:26.676Z,23.50
2019-03-18T10:19:55.731Z,23.50
2019-03-18T10:22:24.684Z,23.50
2019-03-18T10:24:53.748Z,23.50
2019-03-18T10:27:22.803Z,23.50
2019-03-18T10:29:51.866Z,23.50
2019-03-18T10:32:20.970Z,23.50
2019-03-18T10:34:50.040Z,23.50
2019-03-18T10:37:19.115Z,23.50
2019-03-18T10:39:48.193Z,23.50
2019-03-18T10:42:17.224Z,23.50
2019-03-18T10:44:46.299Z,23.50
2019-03-18T10:47:15.344Z,23.50
2019-03-18T10:49:46.279Z,23.50
2019-03-18T10:52:15.098Z,23.50
2019-03-18T10:54:44.189Z,23.50
2019-03-18T10:57:13.264Z,23.50
2019-03-18T10:59:42.301Z,23.50
2019-03-18T11:02:11.370Z,23.50
2019-03-18T11:04:40.342Z,23.50
2019-03-18T11:07:09.414Z,23.50
2019-03-18T11:09:38.556Z,23.50
2019-03-18T11:12:07.618Z,23.50
2019-03-18T11:14:36.656Z,23.50
2019-03-18T11:17:05.721Z,23.50
2019-03-18T11:19:34.769Z,23.50
2019-03-18T11:22:03.837Z,23.50
2019-03-18T11:24:32.907Z,23.50
2019-03-18T11:27:01.977Z,23.40
2019-03-18T11:29:31.020Z,23.40
2019-03-18T11:32:00.067Z,23.50
2019-03-18T11:34:29.130Z,23.40
2019-03-18T11:36:58.281Z,23.40
2019-03-18T11:39:27.337Z,23.40
2019-03-18T11:41:56.422Z,23.40
2019-03-18T11:44:25.501Z,23.40
2019-03-18T11:46:54.575Z,23.40
2019-03-18T11:49:23.532Z,23.40
2019-03-18T11:51:52.585Z,23.40
2019-03-18T11:54:21.680Z,23.40
2019-03-18T11:56:50.965Z,23.40
2019-03-18T11:59:21.122Z,23.40
2019-03-18T12:01:50.407Z,23.40
2019-03-18T12:04:19.481Z,23.40
2019-03-18T12:06:48.538Z,23.40
2019-03-18T12:09:17.618Z,23.40
2019-03-18T12:11:46.718Z,23.40
2019-03-18T12:14:15.652Z,23.40
2019-03-18T12:16:44.716Z,23.50
2019-03-18T12:19:13.732Z,23.40
2019-03-18T12:21:42.770Z,23.40
2019-03-18T12:24:11.927Z,23.40
2019-03-18T12:26:40.995Z,23.40
2019-03-18T12:29:10.056Z,23.40
2019-03-18T12:31:39.126Z,23.40
2019-03-18T12:34:08.161Z,23.40
2019-03-18T12:36:37.217Z,23.40
2019-03-18T12:39:06.828Z,23.40
2019-03-18T12:41:35.899Z,23.40
2019-03-18T12:44:05.158Z,23.40
2019-03-18T12:46:34.217Z,23.40
2019-03-18T12:49:03.374Z,23.50
2019-03-18T12:51:32.441Z,23.50
2019-03-18T12:54:01.469Z,23.60
2019-03-18T12:56:30.433Z,23.60
2019-03-18T12:58:59.460Z,23.60
2019-03-18T13:01:29.930Z,23.60
2019-03-18T13:03:59.115Z,23.60
2019-03-18T13:06:28.061Z,23.60
2019-03-18T13:08:57.106Z,23.60
2019-03-18T13:11:26.165Z,23.60
2019-03-18T13:13:55.235Z,23.60
2019-03-18T13:16:24.258Z,23.60
2019-03-18T13:18:53.323Z,23.50
2019-03-18T13:21:22.374Z,23.50
2019-03-18T13:23:51.461Z,23.50
2019-03-18T13:26:20.521Z,23.50
2019-03-18T13:28:49.553Z,23.50
2019-03-18T13:31:18.609Z,23.40
2019-03-18T13:33:47.661Z,23.40
2019-03-18T13:36:16.709Z,23.40
2019-03-18T13:38:45.762Z,23.40
2019-03-18T13:41:14.834Z,23.40
2019-03-18T13:43:43.893Z,23.40
2019-03-18T13:46:12.961Z,23.40
2019-03-18T13:48:42.015Z,23.40
2019-03-18T13:51:20.315Z,23.40
2019-03-18T13:53:41.847Z,23.40
2019-03-18T13:56:10.919Z,23.40
2019-03-18T13:58:39.953Z,23.40
2019-03-18T14:01:08.982Z,23.40
2019-03-18T14:03:37.952Z,23.40
2019-03-18T14:06:06.990Z,23.30
2019-03-18T14:08:36.057Z,23.30
2019-03-18T14:11:05.101Z,23.30
2019-03-18T14:13:34.175Z,23.30
2019-03-18T14:16:03.321Z,23.30
2019-03-18T14:18:32.393Z,23.30
2019-03-18T14:21:01.461Z,23.30
2019-03-18T14:23:30.546Z,23.30
2019-03-18T14:25:59.597Z,23.30
2019-03-18T14:28:28.679Z,23.30
2019-03-18T14:30:57.616Z,23.30
2019-03-18T14:33:26.633Z,23.30
2019-03-18T14:35:55.564Z,23.30
2019-03-18T14:38:24.440Z,23.20
2019-03-18T14:40:53.498Z,23.20
2019-03-18T14:43:22.551Z,23.20
2019-03-18T14:45:51.617Z,23.20
2019-03-18T14:48:20.484Z,23.20
2019-03-18T14:50:49.446Z,23.20
2019-03-18T14:53:18.563Z,23.20
2019-03-18T14:55:47.587Z,23.10
2019-03-18T14:58:16.525Z,23.10
2019-03-18T15:00:45.577Z,23.10
2019-03-18T15:03:14.619Z,23.10
2019-03-18T15:05:43.700Z,23.10
2019-03-18T15:08:12.755Z,23.10
2019-03-18T15:10:41.825Z,23.10
2019-03-18T15:13:10.886Z,23.10
2019-03-18T15:15:39.932Z,23.10
2019-03-18T15:18:08.990Z,23.10
2019-03-18T15:20:38.045Z,23.10
2019-03-18T15:23:07.110Z,23.10
2019-03-18T15:25:36.186Z,23.10
2019-03-18T15:28:05.515Z,23.10
2019-03-18T15:30:34.673Z,23.10
2019-03-18T15:33:03.823Z,23.10
2019-03-18T15:35:32.965Z,23.10
2019-03-18T15:38:02.039Z,23.10
2019-03-18T15:40:31.172Z,23.10
2019-03-18T15:43:00.249Z,23.10
2019-03-18T15:45:29.293Z,23.10
2019-03-18T15:47:58.360Z,23.20
2019-03-18T15:50:27.717Z,23.10
2019-03-18T15:52:56.780Z,23.20
2019-03-18T15:55:25.812Z,23.20
2019-03-18T15:57:54.897Z,23.20
2019-03-18T16:00:23.990Z,23.30
2019-03-18T16:02:53.055Z,23.30
2019-03-18T16:05:22.114Z,23.30
2019-03-18T16:07:51.197Z,23.30
2019-03-18T16:10:20.471Z,23.30
2019-03-18T16:12:49.522Z,23.30
2019-03-18T16:15:19.006Z,23.30
2019-03-18T16:17:48.162Z,23.30
2019-03-18T16:20:17.323Z,23.30
2019-03-18T16:22:46.386Z,23.30
2019-03-18T16:25:15.462Z,23.30
2019-03-18T16:27:44.511Z,23.30
2019-03-18T16:30:14.457Z,23.30
2019-03-18T16:32:43.616Z,23.30
2019-03-18T16:35:15.670Z,23.30
2019-03-18T16:37:43.941Z,23.30
2019-03-18T16:40:13.277Z,23.30
2019-03-18T16:42:42.672Z,23.20
2019-03-18T16:45:12.815Z,23.20
2019-03-18T16:47:41.876Z,23.20
2019-03-18T16:50:12.737Z,23.20
2019-03-18T16:52:41.777Z,23.20
2019-03-18T16:55:11.138Z,23.20
2019-03-18T16:57:40.198Z,23.20
2019-03-18T17:00:12.378Z,23.30
2019-03-18T17:02:41.444Z,23.20
2019-03-18T17:05:10.705Z,23.20
2019-03-18T17:07:39.790Z,23.20
2019-03-18T17:10:09.141Z,23.20
2019-03-18T17:12:39.077Z,23.10
2019-03-18T17:15:08.788Z,23.10
2019-03-18T17:17:37.832Z,23.10
2019-03-18T17:20:08.111Z,23.10
2019-03-18T17:22:48.165Z,23.10
2019-03-18T17:25:10.085Z,23.10
2019-03-18T17:27:39.181Z,23.10
2019-03-18T17:30:11.549Z,23.00
2019-03-18T17:32:40.602Z,23.00
2019-03-18T17:35:09.670Z,23.00
2019-03-18T17:37:38.731Z,23.00
2019-03-18T17:40:08.645Z,23.00
2019-03-18T17:42:37.689Z,22.90
2019-03-18T17:45:07.774Z,22.90
2019-03-18T17:47:36.753Z,22.90
2019-03-18T17:50:06.337Z,22.90
2019-03-18T17:52:35.433Z,22.90
2019-03-18T17:55:04.715Z,22.90
2019-03-18T17:57:33.786Z,22.90
2019-03-18T18:00:02.928Z,22.90
2019-03-18T18:02:31.982Z,22.90
2019-03-18T18:05:03.179Z,22.90
2019-03-18T18:07:31.830Z,22.90
2019-03-18T18:10:00.871Z,22.80
2019-03-18T18:12:29.939Z,22.80
2019-03-18T18:14:59.134Z,22.80
2019-03-18T18:17:28.341Z,22.80
2019-03-18T18:19:57.389Z,22.80
2019-03-18T18:22:26.483Z,22.80
2019-03-18T18:24:55.549Z,22.80
2019-03-18T18:27:24.602Z,22.80
2019-03-18T18:29:53.593Z,22.80
2019-03-18T18:32:22.646Z,22.80
2019-03-18T18:34:51.721Z,22.80
2019-03-18T18:37:20.790Z,22.70
2019-03-18T18:39:49.867Z,22.70
2019-03-18T18:42:18.913Z,22.70
2019-03-18T18:44:47.978Z,22.70
2019-03-18T18:47:17.025Z,22.70
2019-03-18T18:49:46.061Z,22.70
2019-03-18T18:52:15.155Z,22.70
2019-03-18T18:54:44.278Z,22.70
2019-03-18T18:57:13.354Z,22.70
2019-03-18T18:59:42.401Z,22.70
2019-03-18T19:02:11.481Z,22.70
2019-03-18T19:04:40.548Z,22.70
2019-03-18T19:07:09.617Z,22.70
2019-03-18T19:09:38.740Z,22.70
2019-03-18T19:12:07.981Z,22.70
2019-03-18T19:14:37.054Z,22.70
2019-03-18T19:17:06.189Z,22.70
2019-03-18T19:19:35.282Z,22.60
2019-03-18T19:22:04.880Z,22.60
2019-03-18T19:24:33.944Z,22.60
2019-03-18T19:27:03.019Z,22.60
2019-03-18T19:29:32.065Z,22.60
2019-03-18T19:32:01.120Z,22.60
2019-03-18T19:34:30.172Z,22.60
2019-03-18T19:36:59.249Z,22.60
2019-03-18T19:39:28.306Z,22.60
2019-03-18T19:41:57.408Z,22.60
2019-03-18T19:44:26.454Z,22.60
2019-03-18T19:46:55.531Z,22.60
2019-03-18T19:49:24.593Z,22.50
2019-03-18T19:51:53.830Z,22.60
2019-03-18T19:54:22.813Z,22.60
2019-03-18T19:56:52.285Z,22.60
2019-03-18T19:59:22.773Z,22.60
2019-03-18T20:01:52.573Z,22.60
2019-03-18T20:04:22.885Z,22.60
2019-03-18T20:06:52.956Z,22.60
2019-03-18T20:09:23.046Z,22.60
2019-03-18T20:11:53.111Z,22.50
2019-03-18T20:14:23.130Z,22.50
2019-03-18T20:16:52.957Z,22.50
2019-03-18T20:19:25.583Z,22.50
2019-03-18T20:21:54.855Z,22.50
2019-03-18T20:24:25.003Z,22.50
2019-03-18T20:26:55.279Z,22.50
2019-03-18T20:29:25.362Z,22.50
2019-03-18T20:31:55.266Z,22.50
2019-03-18T20:34:25.213Z,22.50
2019-03-18T20:36:55.437Z,22.50
2019-03-18T20:39:25.283Z,22.50
2019-03-18T20:41:55.115Z,22.50
2019-03-18T20:44:24.908Z,22.50
2019-03-18T20:46:54.744Z,22.50
2019-03-18T20:49:23.861Z,22.50
2019-03-18T20:51:52.883Z,22.50
2019-03-18T20:54:21.819Z,22.50
2019-03-18T20:56:50.780Z,22.50
2019-03-18T20:59:19.741Z,22.50
2019-03-18T21:01:48.787Z,22.50
2019-03-18T21:04:17.862Z,22.50
2019-03-18T21:06:46.941Z,22.50
2019-03-18T21:09:15.800Z,22.50
2019-03-18T21:11:44.889Z,22.50
2019-03-18T21:14:13.933Z,22.50
2019-03-18T21:16:42.905Z,22.50
2019-03-18T21:19:11.979Z,22.50
2019-03-18T21:21:41.026Z,22.50
2019-03-18T21:24:10.086Z,22.50
2019-03-18T21:26:39.174Z,22.50
2019-03-18T21:29:08.217Z,22.50
2019-03-18T21:31:37.259Z,22.50
2019-03-18T21:34:06.310Z,22.50
2019-03-18T21:36:38.115Z,22.50
2019-03-18T21:39:09.208Z,22.50
2019-03-18T21:41:38.277Z,22.50
2019-03-18T21:44:07.371Z,22.50
2019-03-18T21:46:36.437Z,22.50
2019-03-18T21:49:05.664Z,22.50
2019-03-18T21:51:34.761Z,22.50
2019-03-18T21:54:03.812Z,22.50
2019-03-18T21:56:33.140Z,22.50
2019-03-18T21:59:03.001Z,22.60
2019-03-18T22:01:33.139Z,22.50
2019-03-18T22:04:03.292Z,22.60
2019-03-18T22:06:33.247Z,22.60
2019-03-18T22:09:02.533Z,22.60
2019-03-18T22:11:31.609Z,22.60
2019-03-18T22:14:00.653Z,22.50
2019-03-18T22:16:29.717Z,22.60
2019-03-18T22:18:58.790Z,22.60
2019-03-18T22:21:27.846Z,22.60
2019-03-18T22:23:56.921Z,22.60
2019-03-18T22:26:25.997Z,22.70
2019-03-18T22:28:55.086Z,22.70
2019-03-18T22:31:24.157Z,22.60
2019-03-18T22:33:53.437Z,22.70
2019-03-18T22:36:22.515Z,22.70
2019-03-18T22:38:51.648Z,22.70
2019-03-18T22:41:21.621Z,22.80
2019-03-18T22:43:51.881Z,22.80
2019-03-18T22:46:20.965Z,22.80
2019-03-18T22:48:50.026Z,22.80
2019-03-18T22:51:19.081Z,22.80
2019-03-18T22:53:48.142Z,22.80
2019-03-18T22:56:17.221Z,22.80
2019-03-18T22:58:46.268Z,22.80
2019-03-18T23:01:18.469Z,22.80
2019-03-18T23:03:47.593Z,22.90
2019-03-18T23:06:16.750Z,22.90
2019-03-18T23:08:45.792Z,22.90
2019-03-18T23:11:14.867Z,22.90
2019-03-18T23:13:43.921Z,22.90
2019-03-18T23:16:13.004Z,23.00
2019-03-18T23:18:43.045Z,23.00
2019-03-18T23:21:12.651Z,23.00
2019-03-18T23:23:42.621Z,23.00
2019-03-18T23:26:12.161Z,23.00
2019-03-18T23:28:41.879Z,23.00
2019-03-18T23:31:11.425Z,23.00
2019-03-18T23:33:40.540Z,23.00
2019-03-18T23:36:09.625Z,23.10
2019-03-18T23:38:40.130Z,23.10
2019-03-18T23:41:09.922Z,23.10
2019-03-18T23:43:39.009Z,23.10
2019-03-18T23:46:09.447Z,23.10
2019-03-18T23:48:39.280Z,23.10
2019-03-18T23:51:09.190Z,23.20
2019-03-18T23:53:39.035Z,23.20
2019-03-18T23:56:09.251Z,23.20
2019-03-18T23:58:38.357Z,23.20
